International TAF

Brunei, China, Hong Kong, Malaysia, Philippines, Taiwan

The availability of aerodrome forecasts from overseas locations is dependent on the regular international exchange of data. Some locations may at times be absent. If this problem persists, please advise webav@bom.gov.au

 back to top

ZSPD 20/05/2024 UTC

TAF ZSPD 202101Z 2100/2124 13004MPS 6000 BKN011 TX26/2106Z
TN18/2118Z

WIDD 20/05/2024 UTC

TAF WIDD 202300Z 2100/2124 18008KT 9000 SCT014
PROB30 TEMPO 2100/2103 5000 RA

WAMM 20/05/2024 UTC

TAF WAMM 202300Z 2100/2206 18010KT 9999 SCT020
BECMG 2111/2112 VRB02KT

WBSB 20/05/2024 UTC

TAF WBSB 202300Z 2100/2206 20005KT 9999 FEW014 FEW015CB
TEMPO 2100/2103 5000 TSRA SCT014 FEW015CB
BECMG 2103/2105 30008KT FEW015 FEW016CB

WBKK 20/05/2024 UTC

TAF WBKK 202300Z 2100/2200 VRB03KT 9999 FEW014
BECMG 2110/2112 11005KT

WBGG 20/05/2024 UTC

TAF WBGG 202300Z 2100/2200 26005KT 9999 FEW020
TEMPO 2108/2112 4000 TSRA FEW015CB SCT020

VHHH 20/05/2024 UTC

TAF VHHH 202300Z 2100/2206 10010KT 9999 FEW010 SCT025 TX27/2106Z
TX28/2206Z TN25/2122Z TEMPO 2100/2103 VRB15G25KT 3000 TSRA SHRA
FEW008CB SCT020 TEMPO 2103/2106 4000 SHRA FEW010CB SCT020

VMMC 20/05/2024 UTC

TAF VMMC 202300Z 2100/2206 03008KT 9999 FEW008 SCT020
TEMPO 2100/2106 12012KT 2500 SHRA

ZGSZ 20/05/2024 UTC

TAF AMD ZGSZ 202253Z 2018/2118 09004MPS 6000 SCT040 TX28/2106Z
TN24/2022Z
TEMPO 2021/2103 TSRA SCT015 FEW020CB BKN030

RCTP 20/05/2024 UTC

TAF RCTP 202300Z 2100/2206 03010KT 9999 FEW015 BKN032
TEMPO 2100/2106 33005KT 4000 SHRA FEW010 BKN013 FEW015CB
TEMPO 2106/2112 05015KT 5000 SHRA FEW010 FEW015CB BKN017
TEMPO 2112/2118 06015KT 3000 SHRA FEW010 BKN013 FEW015CB

RCKH 20/05/2024 UTC

TAF RCKH 202300Z 2100/2206 28005KT 9999 FEW015 BKN032
TEMPO 2100/2106 20005KT 4000 SHRA FEW010 FEW015CB BKN017
TEMPO 2106/2112 26010KT 4000 SHRA FEW010 FEW015CB BKN017
BECMG 2112/2114 05005KT
BECMG 2200/2202 28005KT

ZGGG 20/05/2024 UTC

TAF ZGGG 202107Z 2100/2124 05003MPS 6000 FEW010 BKN030 TX28/2107Z
TN22/2122Z
TEMPO 2100/2104 SHRA FEW011 FEW026CB BKN033

ZBAA 20/05/2024 UTC

TAF ZBAA 202107Z 2100/2124 18004MPS CAVOK TX29/2107Z TN17/2121Z

ZSSS 20/05/2024 UTC

TAF ZSSS 202101Z 2100/2124 13004MPS 6000 BKN015 TX28/2106Z
TN19/2118Z

ZBTJ 20/05/2024 UTC

TAF ZBTJ 202104Z 2100/2124 12003MPS 5000 HZ NSC TX28/2106Z
TN17/2121Z

ZBYN 20/05/2024 UTC

TAF ZBYN 202103Z 2100/2124 09004MPS 5000 HZ NSC TX32/2107Z
TN16/2121Z

ZSHC 20/05/2024 UTC

TAF ZSHC 202106Z 2100/2124 09004G10MPS 3000 BR NSC TX28/2106Z
TN21/2121Z

ZSOF 21/05/2024 UTC

TAF COR ZSOF 202230Z 2100/2124 09004MPS 6000 NSC TX30/2107Z
TN19/2121Z

ZWWW 20/05/2024 UTC

TAF ZWWW 202101Z 2100/2124 34004G09MPS 9999 -RA BKN011 OVC020
TX25/2109Z TN18/2123Z
TEMPO 2100/2103 RA BKN007
BECMG 2106/2107 CAVOK
BECMG 2113/2114 20004MPS

ZYTL 20/05/2024 UTC

TAF ZYTL 202105Z 2100/2124 15004MPS 6000 FEW033 TX23/2106Z
TN13/2120Z

RPLL 20/05/2024 UTC

TAF RPLL 202300Z 2100/2206 12007KT 9999 FEW025 SCT100 TX36/2106Z TN28/2121Z
TEMPO 2106/2112 15012KT -TSRA FEW023CB SCT025 BKN090
TEMPO 2115/2121 07004KT

RPVM 20/05/2024 UTC

TAF RPVM 202300Z 2100/2206 04006KT 9999 FEW020
TEMPO 2100/2106 09008KT

RPMZ 20/05/2024 UTC

TAF RPMZ 202300Z 2100/2124 11008KT 9999 FEW017 SCT080
TEMPO 2103/2109 25002KT -SHRA FEW016CB SCT017 BKN080
BECMG 2115/2121 FEW017 BKN080

Australian International

The availability of aerodrome forecasts from overseas locations is dependent on the regular international exchange of data. Some locations may at times be absent. If this problem persists, please advise webav@bom.gov.au

 back to top

YMML 21/05/2024 UTC

TAF AMD YMML 210036Z 2100/2206
22008KT 9999 -SHRA FEW020 BKN030
FM211100 25005KT 9999 NSW FEW020 BKN030
FM211500 27005KT 9999 -DZ SCT010 BKN020
FM220200 20006KT 9999 NSW SCT015 BKN025
INTER 2100/2101 4000 SHRA BKN012
TEMPO 2116/2123 6000 -DZ BKN008
RMK
T 10 13 12 10 Q 1031 1029 1028 1029
TAF3

YSSY 20/05/2024 UTC

TAF YSSY 202305Z 2100/2206
21016KT 9999 -SHRA SCT030 BKN040
FM210100 20015G25KT 9999 -SHRA SCT030
FM210900 21012KT 9999 NSW FEW030
FM211200 27008KT 9999 FEW030
FM220200 20012KT 9999 FEW040
RMK
T 16 17 17 16 Q 1027 1025 1025 1026
TAF3

YBBN 20/05/2024 UTC

TAF YBBN 202302Z 2100/2206
21008KT 9999 FEW040
FM210200 15010KT 9999 -SHRA SCT035
FM211000 21006KT 9999 NSW FEW025
FM220200 15010KT 9999 -SHRA SCT025
RMK
T 19 22 20 18 Q 1022 1020 1020 1022
TAF3

YSCB 20/05/2024 UTC

TAF YSCB 202319Z 2100/2200
19005KT CAVOK
FM210300 27005KT 9999 SCT040
FM210900 VRB03KT 9999 FEW040
FM211500 17005KT CAVOK
RMK
T 10 15 14 08 Q 1029 1026 1026 1027
TAF3

YBCS 20/05/2024 UTC

TAF YBCS 202322Z 2100/2200
16014KT 9999 -SHRA SCT015 SCT025
FM210300 13014KT 9999 -SHRA SCT030
FM211000 17010KT 9999 -SHRA SCT020
INTER 2100/2102 5000 SHRA SCT015
RMK
T 24 25 25 22 Q 1016 1015 1014 1016
TAF3

YBAS 20/05/2024 UTC

TAF YBAS 202312Z 2100/2200
11017KT CAVOK
FM210800 13008KT CAVOK
FM211400 22004KT 9999 FEW020
RMK
T 12 17 19 14 Q 1027 1025 1023 1024

YBMA 20/05/2024 UTC

TAF YBMA 202309Z 2100/2112
14010KT CAVOK
RMK
T 19 23 25 18 Q 1022 1020 1018 1019

YPAD 20/05/2024 UTC

TAF YPAD 202322Z 2100/2206
14005KT 9999 BKN030
FM210200 23008KT 9999 BKN035
FM210700 13006KT 9999 SCT035
FM211200 11005KT 9999 SCT030
BECMG 2116/2118 05005KT 9999 SCT030
FM220300 25008KT 9999 SCT035
RMK
T 14 15 15 12 Q 1033 1031 1029 1030
TAF3

YPDN 20/05/2024 UTC

TAF YPDN 202313Z 2100/2206
12015G25KT CAVOK
FM210300 10014KT CAVOK
FM210800 14008KT 9999 FU NSC
FM220000 12015KT CAVOK
RMK
T 24 29 31 28 Q 1015 1013 1011 1012
TAF3

YPTN 20/05/2024 UTC

TAF AMD YPTN 202313Z 2100/2200
10018G28KT CAVOK
FM210200 11016KT CAVOK
FM210400 12014KT CAVOK
FM210800 13008KT CAVOK
RMK FM210000 MOD TURB BLW 5000FT TL210100
T 21 26 28 23 Q 1017 1015 1013 1014

YPPH 20/05/2024 UTC

TAF YPPH 202322Z 2100/2206
05008KT CAVOK
FM210400 32008KT CAVOK
FM210600 23008KT CAVOK
BECMG 2109/2111 10005KT CAVOK
BECMG 2202/2204 31008KT CAVOK
RMK
T 16 23 25 22 Q 1024 1024 1022 1022
TAF3

YPLM 20/05/2024 UTC

TAF YPLM 202306Z 2100/2200
08011KT CAVOK
FM210400 02010KT CAVOK
FM211200 22006KT CAVOK
FM211900 12005KT CAVOK
RMK
T 21 26 28 27 Q 1019 1018 1017 1016

YCAR 20/05/2024 UTC

TAF YCAR 202036Z 2022/2111
07010KT CAVOK
FM210100 04014KT CAVOK
FM210700 15010KT CAVOK
RMK
T 17 24 29 28 Q 1019 1020 1019 1017

YPCC 20/05/2024 UTC

TAF YPCC 202306Z 2100/2200
11014KT 9999 SCT015
BECMG 2100/2102 10014G24KT 9999 SCT015
INTER 2100/2109 11017G27KT 3000 SHRA SCT010
RMK
T 27 29 30 29 Q 1011 1012 1010 1009

YPPD 20/05/2024 UTC

TAF YPPD 202307Z 2100/2200
09020G30KT CAVOK
BECMG 2104/2105 07017KT CAVOK
BECMG 2107/2108 03011KT CAVOK
BECMG 2112/2113 14007KT CAVOK
RMK FM210000 MOD TURB BLW 3000FT TL210100
T 21 28 29 26 Q 1019 1018 1015 1015

YBTL 21/05/2024 UTC

TAF YBTL 210011Z 2101/2200
12008KT 9999 FEW050
FM210300 06014KT CAVOK
FM210900 13006KT 9999 FEW015
FM211400 20006KT 9999 SCT020
RMK
T 25 27 25 22 Q 1018 1016 1016 1018
TAF3 VALID TL 211200

YMHB 20/05/2024 UTC

TAF YMHB 202330Z 2100/2200
32010KT 9999 SCT035
FM210200 32008KT 9999 BKN030
FM210700 31010KT 9999 -SHRA SCT020 BKN030
TEMPO 2121/2200 4000 SHRA SCT015 BKN025
RMK
T 09 13 12 11 Q 1029 1027 1026 1026
TAF3

YPXM 20/05/2024 UTC

TAF YPXM 202307Z 2100/2200
10011KT 9999 BKN017
BECMG 2110/2112 11010KT 9999 BKN011
TEMPO 2112/2200 9999 BKN009
RMK
T 25 27 27 26 Q 1012 1013 1011 1010

New Zealand

The availability of aerodrome forecasts from overseas locations is dependent on the regular international exchange of data. Some locations may at times be absent. If this problem persists, please advise webav@bom.gov.au

 back to top

NZAA 20/05/2024 UTC

TAF NZAA 202329Z 2100/2206 32008KT 9999 -SHRA BKN025
TEMPO 2100/2110 6000 SHRA
PROB30 TEMPO 2100/2104 2500 +RA SCT030CB
TEMPO 2106/2109 6000 SHRA BKN010
BECMG 2110/2112 20010KT
PROB30 TEMPO 2112/2116 22015G28KT 5000 TSRA BKN012 FEW020CB
PROB30 TEMPO 2115/2118 0500 FG

NZWN 21/05/2024 UTC

TAF AMD NZWN 210042Z 2100/2206 17025G35KT 9999 -RA BKN025
TEMPO 2100/2103 6000 RA BKN009
TEMPO 2103/2112 4000 RA BKN009
BECMG 2112/2114 6000 SHRA
BECMG 2200/2202 17020KT

NZCH 20/05/2024 UTC

TAF NZCH 202320Z 2100/2206 20008KT 3000 RADZ BKN004
BECMG 2100/2102 08010KT 9999 -RA BKN018
TEMPO 2102/2106 6000 RADZ BKN012
BECMG 2104/2106 20005KT
BECMG 2106/2108 BKN012
TEMPO 2106/2121 6000 RADZ BKN008
BECMG 2118/2120 BKN018

YLHI 20/05/2024 UTC

TAF YLHI 202330Z 2100/2200
20016G26KT 9999 -SHRA FEW030 SCT035
FM210400 20014KT 9999 -SHRA SCT020 SCT030
RMK FM210000 MOD TURB BLW 5000FT TL210400
T 20 20 19 18 Q 1018 1017 1017 1019

YSNF 20/05/2024 UTC

TAF YSNF 202330Z 2100/2200
27018G32KT 9999 SCT045
FM210400 24015G25KT 9999 -SHRA SCT020 SCT035
FM211100 22014KT 9999 NSW SCT035
RMK
T 21 21 19 18 Q 1011 1010 1011 1013

Indonesia, Malaysia, Myanmar, Singapore, Thailand, Vietnam

The availability of aerodrome forecasts from overseas locations is dependent on the regular international exchange of data. Some locations may at times be absent. If this problem persists, please advise webav@bom.gov.au

 back to top

WADA

TAF not available.

WAAA 20/05/2024 UTC

TAF WAAA 202300Z 2100/2206 10005KT 9999 SCT019
BECMG 2102/2103 29010KT

WIII 20/05/2024 UTC

TAF WIII 202300Z 2100/2206 VRB02KT 5000 HZ SCT020 BECMG 2102/2104 05010KT 8000 NSW BECMG 2115/2117 17005KT 5000 HZ

WIHH 20/05/2024 UTC

TAF WIHH 202300Z 2100/2200 15006KT 5000 HZ FEW020
BECMG 2106/2108 06010KT 6000 SCT018

WIMM 20/05/2024 UTC

TAF AMD WIMM 202330Z 2100/2200 05010KT 9999 SCT018
TEMPO 2103/2106 5000 TSRA FEW017CB BKN018
BECMG 2114/2115 22003KT 5000 HZ

WIPP 20/05/2024 UTC

TAF WIPP 202300Z 2100/2124 10008KT 9999 SCT010
TEMPO 2106/2110 3000 RA FEW010CB BKN010
TEMPO 2120/2124 3000 BR

WIKD

TAF not available.

WARR 20/05/2024 UTC

TAF WARR 202300Z 2100/2200 08010KT 9999 FEW020

WADD 20/05/2024 UTC

TAF WADD 202300Z 2100/2200 12014KT 9999 SCT016

WRRA

TAF not available.

WALL 20/05/2024 UTC

TAF WALL 202300Z 2100/2206 23007KT 7000 -TSRA FEW018CB SCT019 BECMG 2101/2003 9999
NSW FEW015

WSSS 20/05/2024 UTC

TAF WSSS 202300Z 2100/2206 15008KT 9999 FEW015 SCT020
TEMPO 2105/2108 3000 TSRA FEW012CB BKN015

WSAP 20/05/2024 UTC

TAF WSAP 202300Z 2100/2206 15008KT 9999 FEW015 SCT020
TEMPO 2105/2108 3000 TSRA FEW012CB BKN015

WMKK 20/05/2024 UTC

TAF WMKK 202300Z 2100/2206 VRB02KT 9999 FEW018
PROB30 TEMPO 2100/2102 5000 -TSRA FEW016CB SCT018

WMSA 20/05/2024 UTC

TAF WMSA 202300Z 2100/2200 15005KT 9999 FEW018
PROB30 TEMPO 2102/2104 5000 -TSRA FEW017CB SCT020

WMKP 20/05/2024 UTC

TAF WMKP 202300Z 2100/2200 VRB03KT 9000 FEW020
PROB30 TEMPO 2100/2102 VRB03KT 6000 TSRA FEW010 FEW017CB
BECMG 2104/2106 23010KT 9999

WMKJ 20/05/2024 UTC

TAF WMKJ 202300Z 2100/2200 15005KT 9999 FEW018
TEMPO 2105/2107 4000 TSRA FEW017CB SCT018

WMKD 20/05/2024 UTC

TAF WMKD 202300Z 2100/2200 VRB03KT 9999 FEW020

WMKB 20/05/2024 UTC

TAF WMKB 202300Z 2100/2200 VRB03KT 9000 FEW020
TEMPO 2100/2102 6000 TSRA FEW017CB

VTBD 20/05/2024 UTC

TAF VTBD 202300Z 2100/2206 10005KT 9000 FEW020 SCT100 BECMG 2101/2103
20005KT TEMPO 2107/2111 VRB15KT 4000 TSRA FEW018CB SCT035

VTBS 20/05/2024 UTC

TAF VTBS 202300Z 2100/2206 09005KT 9000 FEW020 SCT100 BECMG 2101/2103
19008KT TEMPO 2107/2111 VRB15KT 4000 TSRA FEW018CB SCT035

VTBU 20/05/2024 UTC

TAF VTBU 202300Z 2100/2124 36004KT 9999 FEW020 SCT100 BECMG 2100/2103
20008KT TEMPO 2106/2111 VRB15KT 4000 TSRA FEW018CB SCT035 BKN100
BECMG 2116/2118 35004KT

VTCC 20/05/2024 UTC

TAF VTCC 202300Z 2100/2206 02005KT 9999 SCT035 BECMG 2101/2103
18005KT TEMPO 2108/2114 18015G25KT 4000 TSRA FEW025CB BKN035
BECMG 2110/2112 24005KT BECMG 2115/2117 36005KT TEMPO 2116/2122
-TSRA FEW025CB BKN035

VTSP 20/05/2024 UTC

TAF VTSP 202300Z 2100/2206 26005KT 9999 SCT020 TEMPO 2100/2108 3000
TSRA FEW018CB SCT020 BKN100

VTSS 20/05/2024 UTC

TAF VTSS 202300Z 2100/2124 00000KT 9999 FEW020 BECMG 2102/2104
23010KT TEMPO 2106/2112 VRB15G25KT -TSRA FEW016CB SCT018 BKN100
BECMG 2114/2116 00000KT

VVTS 21/05/2024 UTC

TAF AMD VVTS 202312Z 2100/2206 21008KT 9999 SCT015 SCT040 TEMPO
2100/2106 4000 SHRA SCT015 FEW017CB BKN040 TEMPO 2109/2113
21015G28KT 3000 TSRA SCT013 SCT015CB

VDPP 20/05/2024 UTC

TAF VDPP 202300Z 2100/2118 21007KT 9999 SCT017 SCT040 TEMPO 2100/2104
06014KT 4000 TSRA SCT015 FEW017CB BKN040 TEMPO 2108/2112 5000
TSRA SCT015 FEW017CB SCT040

VVNB 20/05/2024 UTC

TAF VVNB 202300Z 2100/2124 05006KT 3000 BR SCT008 BKN020 BECMG
2101/2102 6000 NSW SCT020 TEMPO 2120/2124 4000 SHRA SCT010
FEW027TCU

VYYY 20/05/2024 UTC

TAF VYYY 202300Z 2100/2124 18006KT 7000 SCT020 FEW025CB BKN110 TEMPO
2100/2106 16005KT 5000 DZ SCT020 FEW025CB SCT100 TEMPO 2106/2112
18006KT 4000 TSRA SCT015 FEW020CB BKN100

South America

The availability of aerodrome forecasts from overseas locations is dependent on the regular international exchange of data. Some locations may at times be absent. If this problem persists, please advise webav@bom.gov.au

 back to top

SAEZ 20/05/2024 UTC

TAF SAEZ 201700Z 2018/2118 36010G20KT CAVOK
TX15/2018Z TN07/2109Z
BECMG 2100/2103 36010KT
PROB30 2106/2112 36004KT 2000 MIFG BR SCT010 SCT020
TEMPO 2112/2115 8000 BKN020
BECMG 2115/2118 VRB05KT 9999 BKN025 OVC040

SAVC 21/05/2024 UTC

TAF SAVC 202300Z 2100/2124 28015G25KT CAVOK
TX14/2118Z TN06/2111Z TEMPO 2100/2106 27006KT

SCIE 20/05/2024 UTC

TAF SCIE 202200Z 2100/2124 32006KT 9999 FEW025 BKN050 TX14/2118Z
TN07/2110Z
BECMG 2106/2108 19004KT CAVOK
TEMPO 2108/2112 4000 BR
BECMG 2115/2117 24010KT

SACO 21/05/2024 UTC

TAF SACO 202300Z 2100/2124 02005KT CAVOK TX15/2118Z TN02/2110Z
BECMG 2101/2104 32005KT
BECMG 2106/2109 23005KT 6000 NSC
BECMG 2109/2112 16010KT 8000 BKN025

SCIP 21/05/2024 UTC

TAF SCIP 202257Z 2100/2200 31012KT 9999 SCT010 BKN020
TN21/2108Z TX24/2119Z
TEMPO 2100/2105 5000 -RA BKN008 BKN015
TEMPO 2115/2121 4000 -RA BKN008 OVC015

SAZM 21/05/2024 UTC

TAF SAZM 202300Z 2100/2124 36005KT CAVOK TX14/2118Z TN05/2110Z
BECMG 2102/2104 34010KT
BECMG 2114/2116 VRB03KT
BECMG 2120/2122 09010KT

SAME 21/05/2024 UTC

TAF SAME 202300Z 2100/2124 16010KT 9999 SCT030 BKN100 TX12/2119Z
TN04/2110Z
BECMG 2112/2114 18005KT 9999 FEW010 BKN030
BECMG 2115/2117 5000 DZ SCT010 OVC025
BECMG 2120/2122 9999 NSW FEW020 BKN040

SUMU 20/05/2024 UTC

TAF SUMU 202330Z 2100/2124 07005KT CAVOK TX15/2118Z TN06/2110Z
TEMPO 2106/2111 3000 BR NSC
BECMG 2118/2120 13010KT

SAZN 21/05/2024 UTC

TAF SAZN 202300Z 2100/2124 27005KT CAVOK TX13/2118Z TN00/2111Z

SCTE 20/05/2024 UTC

TAF COR SCTE 202330Z 2100/2124 02010KT 9999 -SHRA FEW030 BKN040
TN04/2111Z TX10/2118Z
BECMG 2104/2106 36005KT NSW FEW010 SCT030
TEMPO 2111/2121 VRB02KT -SHRA BKN007 BKN025
BECMG 2122/2124 VRB02KT SCT020

SCCI 20/05/2024 UTC

TAF SCCI 201621Z 2018/2118 27018G30KT 9999 SCT036 TN03/2110Z
TX08/2118Z
TEMPO 2020/2106 7000 -SHRA BKN024
BECMG 2115/2117 29025G38KT -SHRA SCT020 BKN034

SAWG 21/05/2024 UTC

TAF SAWG 202300Z 2100/2124 26015G25KT CAVOK TX08/2118Z TN03/2112Z
BECMG 2101/2103 27020G30KT 9999 SCT035 BKN070

SAAR 21/05/2024 UTC

TAF SAAR 202300Z 2100/2124 05010KT CAVOK TX14/2118Z TN07/2110Z
BECMG 2105/2106 09005KT
BECMG 2109/2110 7000 PROB40
TEMPO 2111/2112 3000 BR
BECMG 2112/2114 05005KT 9999 BKN040 OVC200

SAZS 21/05/2024 UTC

TAF SAZS 202300Z 2100/2124 30010KT 8000 RA BKN015 BKN025
TX07/2118Z
TN02/2110Z
TEMPO 2104/2109 6000 RA OVC010
BECMG 2112/2114 29010KT 9999 NSW BKN030

SCEL 20/05/2024 UTC

TAF SCEL 202200Z 2100/2124 02010KT 5000 RA BKN020 OVC040
TX11/2118Z
TN07/2110Z
TEMPO 2100/2102 VRB02KT 2000 +RA BKN010 BKN025
BECMG 2103/2105 34004KT 8000 -SHRA SCT025 OVC040
BECMG 2115/2117 19006KT 9999 FEW035 BKN080

SAWH 21/05/2024 UTC

TAF SAWH 202300Z 2100/2124 24020G30KT 9999 SHRASN BKN020
TX08/2118Z
TNM01/2112Z
TEMPO 2106/2112 5000 RASN SCT010 OVC030
BECMG 2114/2116 29020G30KT 9999 NSW SCT030 BKN070
BECMG 2120/2122 25025G35KT 3000 SN OVC010

Guam, Japan, Korea

The availability of aerodrome forecasts from overseas locations is dependent on the regular international exchange of data. Some locations may at times be absent. If this problem persists, please advise webav@bom.gov.au

 back to top

PGUA 20/05/2024 UTC

TAF PGUA 201800Z 2018/2124 08015KT 9999 BKN015 BKN025 QNH2980INS
TEMPO 2018/2102 08015G20KT 6000 -SHRA BKN010 TX31/2103Z
TN26/2018Z

PGUM 20/05/2024 UTC

TAF PGUM 202321Z 2100/2206 09014G24KT P6SM VCSH SCT017 SCT035

PGSN 20/05/2024 UTC

TAF PGSN 202321Z 2100/2124 09016G24KT P6SM VCSH FEW016 SCT030

PTRO 20/05/2024 UTC

TAF PTRO 202321Z 2100/2124 01010KT P6SM VCSH FEW009 SCT016 SCT120
TEMPO 2103/2107 4SM SHRA SCT009 BKN015 BKN120

RJOO

20/05/2024 UTC

TAF RJOO 202305Z 2100/2206 35011KT 9999 FEW030 BECMG 2121/2200
08006KT

RJOB 20/05/2024 UTC

TAF RJOB 202305Z 2100/2206 01006KT 9999 FEW025

RJGG 20/05/2024 UTC

TAF RJGG 202305Z 2100/2206 30014KT 9999 FEW030 BECMG 2121/2200
14012KT

RJCC 20/05/2024 UTC

TAF RJCC 202306Z 2100/2206 35019KT 9999 FEW006 BKN015 TEMPO
2100/2102 4000 -SHRA BR FEW004 BKN006 TEMPO 2102/2107
35028G38KT BECMG 2108/2110 01005KT BECMG 2112/2115 16005KT
BECMG 2121/2200 17020KT

RJSS 20/05/2024 UTC

TAF RJSS 202305Z 2100/2206 30018KT 9999 FEW020 TEMPO 2100/2106
30022G32KT BECMG 2110/2112 32004KT BECMG 2121/2200 14012KT

RJFK 20/05/2024 UTC

TAF RJFK 202308Z 2100/2206 13006KT 9999 FEW030 BECMG 2112/2115
35005KT BECMG 2121/2200 10012KT

RJAA 20/05/2024 UTC

TAF RJAA 202305Z 2100/2206 33008KT 9999 FEW030 BECMG 2103/2105
11010KT BECMG 2112/2115 03008KT BECMG 2200/2203 12010KT

RJBB 20/05/2024 UTC

TAF RJBB 202305Z 2100/2206 02006KT 9999 FEW030 BECMG 2103/2105
30004KT BECMG 2107/2109 02010KT BECMG 2203/2206 24009KT

RJTT 20/05/2024 UTC

TAF RJTT 202309Z 2100/2206 12006KT 9999 FEW030 BECMG 2112/2115
04010KT BECMG 2203/2206 10005KT

RJFF 20/05/2024 UTC

TAF RJFF 202310Z 2100/2206 32011KT 9999 FEW030 BECMG 2112/2115
17003KT BECMG 2200/2203 31006KT

RJFT 21/05/2024 UTC

TAF AMD RJFT 210004Z 2100/2206 03008KT 9999 FEW030 BECMG 2100/2102
26006KT BECMG 2109/2111 06004KT

RJFU 20/05/2024 UTC

TAF RJFU 202305Z 2100/2206 28008KT 9999 FEW040 BECMG 2118/2121
15005KT BECMG 2200/2203 31005KT

ROAH 20/05/2024 UTC

TAF ROAH 202308Z 2100/2206 10014KT 9999 -SHRA FEW008 BKN012 TEMPO
2100/2106 4000 SHRA FEW006 BKN008 FEW020CB TEMPO 2106/2109
3000 +TSRA FEW006 BKN008 SCT020CB BECMG 2109/2111 17010KT
TEMPO 2109/2115 4000 SHRA FEW006 BKN008 FEW020CB TEMPO
2115/2206 FEW006 BKN008

RKSS 20/05/2024 UTC

TAF RKSS 202300Z 2100/2206 12005KT 4000 BR FEW009 BKN028
TX27/2106Z TN14/2121Z TX26/2206Z
BECMG 2101/2103 22006KT CAVOK
BECMG 2105/2107 28006KT
BECMG 2115/2117 22005KT 3500 BR SCT010
TEMPO 2120/2121 0800 FG BKN005
BECMG 2201/2203 27006KT 6000 NSW NSC

RKSI 20/05/2024 UTC

TAF RKSI 202300Z 2100/2206 13006KT 4000 BR SCT010 BKN025
TX24/2105Z TN14/2120Z TX22/2205Z
BECMG 2102/2104 27006KT 6000 NSW FEW015 SCT030
BECMG 2114/2116 24006KT 1800 BR SCT005 BKN015
TEMPO 2118/2122 0800 FG BKN003
BECMG 2122/2124 13006KT 4000 SCT010 BKN025
BECMG 2202/2204 29006KT 6000 NSW FEW015 SCT030

RKSM 20/05/2024 UTC

TAF RKSM 202300Z 2100/2206 12006KT 9999 SCT030 TX27/2106Z
TN16/2121Z

RKPK 20/05/2024 UTC

TAF RKPK 202300Z 2100/2206 03008KT 9999 SCT030
TX24/2106Z TN13/2121Z
BECMG 2103/2104 03010KT
BECMG 2108/2109 03008KT
BECMG 2114/2115 03006KT
BECMG 2202/2203 21008KT

RKPC 20/05/2024 UTC

TAF RKPC 202300Z 2100/2206 05007KT CAVOK
TX23/2104Z TN17/2119Z TX22/2205Z
BECMG 2102/2103 06015G30KT
BECMG 2110/2111 08012KT
TEMPO 2115/2120 08015G25KT 9999 SCT030 BKN200
TEMPO 2201/2206 08015G25KT

Indonesia, Pakistan, Singapore, India, Sri Lanka, United Arab Emirates

The availability of aerodrome forecasts from overseas locations is dependent on the regular international exchange of data. Some locations may at times be absent. If this problem persists, please advise webav@bom.gov.au

 back to top

WIII 20/05/2024 UTC

TAF WIII 202300Z 2100/2206 VRB02KT 5000 HZ SCT020 BECMG 2102/2104 05010KT 8000 NSW BECMG 2115/2117 17005KT 5000 HZ

WSSS 20/05/2024 UTC

TAF WSSS 202300Z 2100/2206 15008KT 9999 FEW015 SCT020
TEMPO 2105/2108 3000 TSRA FEW012CB BKN015

VCBI 20/05/2024 UTC

TAF VCBI 202300Z 2100/2206 VRB05KT 9999 FEW017 TX29/2107Z
TN25/2200Z
BECMG 2104/2106 24010G20KT PROB30
TEMPO 2100/2108 24010G25KT 4000 -TSRA/SHRA FEW010 BKN016
FEW018CB PROB40
TEMPO 2109/2118 24010G25KT 4000 TSRA/SHRA FEW010 BKN016
FEW018CB

VECC 20/05/2024 UTC

TAF VECC 202300Z 2100/2206 07005KT 2500 HZ SCT020 SCT100
BECMG 2103/2105 14005KT 4000 -RA HZ
TEMPO 2105/2109 30015G25KT 1500 TSRA SCT015 FEW025CB OVC090
BECMG 2120/2122 2800 HZ
BECMG 2203/2205 3500 -RA HZ

VOMM 20/05/2024 UTC

TAF VOMM 202300Z 2100/2206 VRB02KT 5000 BR SCT020 BKN100
TEMPO 2103/2109 4000 -TSRA/RA SCT018 FEW025TCU/CB BKN080
BECMG 2106/2107 12010KT
BECMG 2118/2119 27005KT
BECMG 2200/2201 VRB02KT 5000 BR

VOTV 20/05/2024 UTC

TAF VOTV 202300Z 2100/2206 VRB02KT 3000 BR SCT010 FEW025CB BKN080

TEMPO 2100/2102 35010KT 1500 TSRA RA SCT008 SCT010 FEW025CB OVC080

BECMG 2103/2105 32010KT 5000 HZ RA SCT012 FEW025CB BKN080

TEMPO 2109/2113 32010G20KT 1500 TSRA SCT008 FEW025CB OVC080

BECMG 2113/2114 VRB02KT 3000 BR RA SCT012 FEW025CB BKN080

TEMPO 2121/2202 32010KT 1500 TSRA RA SCT008 FEW025CB OVC080

BECMG 2203/2205 32010KT 5000 HZ RA SCT012 BKN080

VABB 20/05/2024 UTC

TAF VABB 202300Z 2100/2109 16008KT 2500 BR FEW020 SCT025
BECMG 2103/2105 24010KT 4000 HZ SCT020 SCT025
TEMPO 2107/2109 27010G20KT

VAAH 20/05/2024 UTC

TAF VAAH 202300Z 2100/2206 29006KT 4000 FU FEW080
BECMG 2101/2103 29010KT 3000 HZ
TEMPO 2104/2106 33011KT 4000 HZ FU
BECMG 2107/2109 29011KT 6000
BECMG 2113/2115 28005KT 4000 FU NSC
BECMG 2116/2118 27010KT
BECMG 2122/2124 30010KT
BECMG 2201/2203 3000 HZ
BECMG 2204/2206 33012KT 5000 FU

VILK 20/05/2024 UTC

TAF VILK 202300Z 2100/2206 12006KT 5000 HZ FEW100
BECMG 2107/2109 34006KT 5000 HZ SCT100
BECMG 2118/2120 11010KT 5000 HZ FEW100
BECMG 2200/2202 4000 HZ
BECMG 2204/2206 5000 HZ NSC

VANP 20/05/2024 UTC

TAF VANP 202300Z 2100/2206 23005KT 5000 HZ NSC
BECMG 2109/2111 12005KT 5000 HZ FEW025 SCT025
TEMPO 2109/2113 FEW030CB
BECMG 2113/2115 VRB03KT 4000 HZ FEW025 SCT100
BECMG 2200/2202 24005KT 5000 HZ NSC

VRMM 20/05/2024 UTC

TAF VRMM 202300Z 2100/2206 25022KT 9999 SCT017TCU OVC100 TEMPO
2100/2106
25025G40KT 4000 TSRA SCT017CB

VOHS 20/05/2024 UTC

TAF VOHS 202300Z 2100/2206 14006KT 6000 SCT015 SCT025 TEMPO
2100/2102 13006KT 5000 HZ SCT015 SCT100 BECMG 2103/2106 14008KT 6000
SCT015 SCT025 TEMPO 2109/2114 14012KT SCT015 FEW030CB TEMPO
2200/2203 08006KT 5000 HZ SCT015 SCT100 BECMG 2204/2206 08007KT 6000
SCT015 SCT025

OPKC 20/05/2024 UTC

TAF OPKC 202300Z 2100/2206 24012G22KT 6000 NSC TEMPO 2100/2104
27010KT 5000 FU NSC FM211900 26010KT 6000 NSC TEMPO
2200/2204 28007KT 5000 FU NSC FM220400 25010G20KT
6000 NSC

OBBI 20/05/2024 UTC

TAF OBBI 202300Z 2100/2206 VRB05KT CAVOK BECMG 2110/2112 10010KT

OMAA 20/05/2024 UTC

TAF OMAA 202300Z 2100/2206 22005KT 8000 NSC
PROB30 2100/2104 4000 HZ BKN010
BECMG 2106/2108 32012KT
BECMG 2117/2119 12005KT

OMDB 21/05/2024 UTC

TAF AMD OMDB 210002Z 2100/2206 18005KT 8000 NSC
PROB30 2100/2104 0100 FG VV///
BECMG 2106/2108 29013KT
BECMG 2116/2118 17005KT

OOMS 20/05/2024 UTC

TAF OOMS 202300Z 2100/2206 26008KT 8000 NSC BECMG 2106/2108 03012KT
BECMG 2115/2117 VRB02KT BECMG 2120/2122 24009KT

OMSJ 21/05/2024 UTC

TAF AMD OMSJ 210002Z 2100/2206 18005KT 7000 NSC
PROB30 2100/2104 0100 FG VV///
BECMG 2107/2109 29013KT
BECMG 2116/2118 16005KT

Malawi, Mauritius, South Africa, Zambia, Zimbabwe

The availability of aerodrome forecasts from overseas locations is dependent on the regular international exchange of data. Some locations may at times be absent. If this problem persists, please advise webav@bom.gov.au

 back to top

FIMP 20/05/2024 UTC

TAF COR FIMP 202305Z 2100/2206 15015G30KT 8000 -SHRA FEW010 BKN016
TEMPO 2100/2108 15025G35KT 2000 SHRA FEW005 BKN015
BECMG 2108/2110 9999 SCT017 BKN050

FMEE 20/05/2024 UTC

TAF FMEE 202300Z 2100/2206 14022G37KT 9999 SCT020 SCT060 TEMPO
2112/2115 4500 SHRA SCT020TCU BKN040 TEMPO 2119/2203 4000 SHRA
SCT020TCU BKN040

FLKK

TAF not available.

FWKI 20/05/2024 UTC

TAF FWKI 201500Z 2018/2124 12010KT 9999 BKN032 FM201800 10010KT 9999
FEW028 BECMG 2102/2106 17008KT 6000 VCFG FEW005 BECMG 2106/2108
13010KT 9999 FEW015 BECMG
2110/2112 BKN022 BECMG 2114/2116 11008KT 9999 SCT028

FAOR 20/05/2024 UTC

TAF FAOR 202200Z 2100/2206 VRB03KT CAVOK
TX24/2113Z TN11/2204Z
BECMG 2100/2102 16008KT
BECMG 2122/2124 VRB03KT
PROB40 TEMPO 2200/2206 4500 BR
PROB30 TEMPO 2202/2206 0800 FG VV001

FVHA

TAF not available.

FAWK 21/05/2024 UTC

TAF FAWK 210000Z 2101/2112 NIL

FABL 20/05/2024 UTC

TAF FABL 202200Z 2100/2124 VRB03KT CAVOK TX26/2112Z TN03/2104Z

FALE 20/05/2024 UTC

TAF FALE 202200Z 2100/2206 VRB02KT CAVOK
TX28/2112Z TN16/2103Z BECMG 2109/2111
04012KT BECMG 2118/2120 VRB03KT

YPCC 20/05/2024 UTC

TAF YPCC 202306Z 2100/2200
11014KT 9999 SCT015
BECMG 2100/2102 10014G24KT 9999 SCT015
INTER 2100/2109 11017G27KT 3000 SHRA SCT010
RMK
T 27 29 30 29 Q 1011 1012 1010 1009

United States (includes Hawaii) and Mexican emergency/alternates

The availability of aerodrome forecasts from overseas locations is dependent on the regular international exchange of data. Some locations may at times be absent. If this problem persists, please advise webav@bom.gov.au

 back to top

PHNL 20/05/2024 UTC

TAF PHNL 202335Z 2100/2206 10010KT P6SM SCT035 SCT045
FM210700 35005KT P6SM FEW025
FM212000 10010KT P6SM SCT035 SCT045

PHLI 20/05/2024 UTC

TAF PHLI 202335Z 2100/2124 10010KT P6SM VCSH SCT025 BKN040
TEMPO 2100/2104 BKN025

PHOG 20/05/2024 UTC

TAF PHOG 202335Z 2100/2124 10017G28KT P6SM FEW030 SCT050 WS005/11010KT
FM210600 07012KT P6SM FEW025
FM212000 06015G25KT P6SM FEW030 SCT050

PHTO 20/05/2024 UTC

TAF PHTO 202335Z 2100/2124 11010KT P6SM VCSH SCT030 BKN035
FM210500 23003KT P6SM VCSH SCT020 BKN035
FM211900 13008KT P6SM VCSH SCT020 BKN040

PKMJ 20/05/2024 UTC

TAF PKMJ 202321Z 2100/2124 07012KT P6SM VCSH FEW015 FEW050

KLAX 20/05/2024 UTC

TAF KLAX 202340Z 2100/2206 26014G20KT P6SM SCT020
FM210200 26010KT P6SM SCT020
FM210600 26005KT P6SM OVC015
FM211800 25007KT P6SM BKN020
FM212000 26012KT P6SM SCT025

KONT 20/05/2024 UTC

TAF KONT 202324Z 2100/2206 25012KT P6SM BKN035
FM210500 26007KT P6SM SCT015
FM210900 24005KT 5SM BR OVC015
FM211500 VRB04KT 6SM HZ SCT015
FM212100 25011G18KT P6SM SKC
FM220500 VRB04KT P6SM SKC

KPMD 20/05/2024 UTC

TAF AMD KPMD 202353Z 2100/2124 24020G30KT P6SM SKC
FM210300 24018G25KT P6SM SKC
FM210600 22012KT P6SM SKC
FM211200 VRB05KT P6SM SKC
FM211800 04010KT P6SM SKC

KSAN 20/05/2024 UTC

TAF KSAN 202357Z 2100/2206 27007KT P6SM SCT021
FM210300 VRB04KT P6SM BKN021
FM210500 VRB04KT P6SM OVC015
FM211700 VRB04KT P6SM SCT020
FM211900 26009KT P6SM SCT020
FM220300 VRB04KT P6SM OVC012

KLAS 20/05/2024 UTC

TAF KLAS 202320Z 2100/2206 26013G22KT P6SM VCSH SCT120
FM210200 22010G17KT P6SM FEW120
FM211000 35010KT P6SM FEW120
FM211500 35012G20KT P6SM SKC
FM212000 35008KT P6SM SKC

KOAK 20/05/2024 UTC

TAF KOAK 202320Z 2100/2206 29016KT P6SM SKC
FM210400 29004KT P6SM SKC
FM212000 28016KT P6SM SKC

KSFO 20/05/2024 UTC

TAF KSFO 202320Z 2100/2206 29017G24KT P6SM SKC
FM210400 31005KT P6SM SKC
FM212000 31010KT P6SM SKC
FM212100 30017G25KT P6SM FEW250

KSMF 20/05/2024 UTC

TAF KSMF 202320Z 2100/2124 33011G19KT P6SM SKC
FM210300 32005KT P6SM SKC
FM211200 33010KT P6SM SKC
FM211700 34011G20KT P6SM SKC

KSCK 20/05/2024 UTC

TAF KSCK 202320Z 2100/2124 32013G21KT P6SM SKC
FM210300 31010KT P6SM SKC
FM211800 33009G18KT P6SM SKC

KFAT 20/05/2024 UTC

TAF KFAT 202320Z 2100/2124 31009KT P6SM SKC

KJFK 20/05/2024 UTC

TAF KJFK 202325Z 2100/2206 16010KT P6SM FEW035 BKN250
FM210200 18005KT P6SM SCT006 BKN250
FM210400 20005KT 6SM BR BKN006
TEMPO 2114/2116 SCT006 BKN040
FM211600 18010KT P6SM SCT006 BKN040
FM211800 17010KT P6SM SCT040 SCT250

KPHL 20/05/2024 UTC

TAF KPHL 202332Z 2100/2206 19004KT P6SM FEW040
FM210700 20003KT 6SM BR FEW015 SCT025
FM210900 20003KT 1 1/2SM BR BKN004 BKN015
FM211200 21004KT 5SM BR BKN004 BKN015
FM211300 21005KT P6SM SCT007 BKN020
FM211500 21008KT P6SM FEW035
FM212300 20006KT P6SM SKC

KPIT 20/05/2024 UTC

TAF KPIT 202320Z 2100/2206 VRB05KT P6SM SCT250
FM211600 24009KT P6SM SCT060

KDEN 20/05/2024 UTC

TAF KDEN 202345Z 2100/2206 04012KT P6SM SCT050 BKN080 BKN120
TEMPO 2100/2102 VRB18G36KT -TSRA BKN050CB
FM210400 01012G22KT P6SM VCSH SCT025 BKN050
FM210900 36010KT P6SM OVC020
FM211500 01006KT P6SM SCT020 BKN040
FM211900 07010KT P6SM VCSH SCT040 BKN100 OVC140
TEMPO 2120/2124 VRB15G30KT -TSRA BKN040CB
FM220300 21009KT P6SM SCT070 BKN120

KMCI 20/05/2024 UTC

TAF KMCI 202321Z 2100/2124 18009KT P6SM VCTS SCT045 BKN080CB
FM210200 16010KT P6SM FEW070 BKN250
FM211300 19015G20KT P6SM SCT025

KDFW 20/05/2024 UTC

TAF KDFW 202337Z 2100/2206 17015G25KT P6SM SCT250
FM211000 18014KT P6SM BKN012
FM211600 19015G25KT P6SM BKN025
FM211800 18018KT P6SM BKN035
FM212100 17016KT P6SM SCT050

KAUS 20/05/2024 UTC

TAF KAUS 202320Z 2100/2206 16009KT P6SM FEW050
FM210600 17008KT P6SM BKN012
FM211500 18013KT P6SM BKN025
FM211700 17014KT P6SM FEW035 SCT250

KELP 20/05/2024 UTC

TAF KELP 202327Z 2100/2124 25015G25KT P6SM FEW200 BKN250
FM210500 30014KT P6SM SCT250
FM211800 24014G27KT P6SM FEW250

KIAH 20/05/2024 UTC

TAF KIAH 202320Z 2100/2206 11014KT P6SM FEW045
FM210500 15007KT P6SM BKN015
FM211500 16011KT P6SM SCT025 BKN035
FM211700 17012G22KT P6SM SCT025 BKN035
FM220400 15010KT P6SM BKN015

KSAT 20/05/2024 UTC

TAF KSAT 202320Z 2100/2206 13012KT P6SM FEW250
FM210500 14009KT P6SM BKN012
FM211500 16014KT P6SM BKN025
FM211700 17014KT P6SM FEW035 SCT250

KTUS 20/05/2024 UTC

TAF KTUS 202321Z 2100/2124 33018G28KT P6SM SCT140 BKN200
FM210300 28009KT P6SM SCT140
FM210600 24005KT P6SM FEW140
FM210900 15006KT P6SM SKC
FM211800 25007KT P6SM SKC
FM212100 27011G18KT P6SM SKC

MMCU 20/05/2024 UTC

TAF MMCU 201641Z 2018/2118 09010KT P6SM SCT200
FM202100 09015KT P6SM SCT200
FM210300 31012KT P6SM SCT200
FM210600 26010KT P6SM BKN200
FM211200 25006KT P6SM SCT200

MMHO 20/05/2024 UTC

TAF MMHO 201653Z 2018/2118 23012KT P6SM BKN200
FM210300 00000KT P6SM SCT250

MMLT 20/05/2024 UTC

TAF MMLT 201704Z 2018/2118 07010KT P6SM SCT240
FM210300 00000KT P6SM BKN240
FM211200 00000KT P6SM SCT240

MMSD 20/05/2024 UTC

TAF MMSD 201704Z 2018/2118 15015KT P6SM SCT250
FM210300 32005KT P6SM BKN250
FM211200 02005KT P6SM SCT250

Papua New Guinea, Southwest Pacific

The availability of aerodrome forecasts from overseas locations is dependent on the regular international exchange of data. Some locations may at times be absent. If this problem persists, please advise webav@bom.gov.au

 back to top

NWWW 20/05/2024 UTC

TAF NWWW 202300Z 2100/2124 VRB03KT 9999 FEW035 SCT050 BKN180 BECMG
2101/2103 17010KT PROB30 TEMPO 2103/2115 SHRA BECMG 2106/2108 VRB03KT

NFFN 20/05/2024 UTC

TAF NFFN 202305Z 2100/2124
30010KT 9999 FEW030
PROB30 TEMPO 2103/2106 5000 TSRA BKN016 FEW018CB
BECMG 2104/2106 VRB03KT
BECMG 2122/2124 31010KT

NFNA 20/05/2024 UTC

TAF NFNA 202307Z 2100/2124
05010KT 9999 FEW028
PROB30 TEMPO 2103/2106 5000 TSRA FEW018CB
BECMG 2105/2107 VRB03KT
PROB40 2115/2118 0500 FG BKN002

NFTF 20/05/2024 UTC

TAF NFTF 202306Z 2100/2124
01012KT 9999 SCT015

NSTU 20/05/2024 UTC

TAF NSTU 202335Z 2100/2124 12012KT P6SM VCSH FEW030 SCT040

NVVV 20/05/2024 UTC

TAF NVVV 202300Z 2100/2124 12008KT 9000 SCT020 BKN040
INTER 2100/2106 7000 RA SCT010 BKN018 OVC038

NCRG 20/05/2024 UTC

TAF NCRG 202306Z 2100/2124
08010KT 9999 FEW020 SCT040

NTAA 20/05/2024 UTC

TAF AMD NTAA 202318Z 2100/2206 27005KT 9999 FEW025 TEMPO 2100/2104
05015KT BECMG 2102/2104 VRB05KT TEMPO 2120/2124 28010KT

NTTG

TAF not available.

NTTO

TAF not available.

NSFA 20/05/2024 UTC

TAF NSFA 202306Z 2100/2124
10008KT 9999 FEW028
PROB40 TEMPO 2102/2106 5000 TSRA BKN016 FEW017CB

ANYN

TAF not available.

AGGH 20/05/2024 UTC

TAF AGGH 202312Z 2100/2124 09005KT 9999 FEW018 BKN030
FM210300 11005KT 9999 SCT018 SCT030 T 30 31 30 29 Q 1011 1009
1008 1010 0000020600 52465

AGGM 20/05/2024 UTC

TAF AGGM 202312Z 2100/2124 09005KT 9999 FEW018 BKN100

INTER 2103/2105 5000 TSRA SCT015 FEW016CB BKN026

Q 1010 1008 10 07 1009

AGGN 20/05/2024 UTC

TAF AGGN 202312Z 2100/2124 12010KT 9999 FEW018 BKN100

INTER 2103/2105 5000 TSRA SCT015 FEW016CB BKN026

AYPY 20/05/2024 UTC

TAF AYPY 201505Z 2018/2118 14010KT 9999 BKN040
FM202200 13010KT 9999 SCT020 SCT140
FM210600 16012KT 9999 SCT018 BKN140

AYNZ

TAF not available.

AYMD

TAF not available.

AYMH

TAF not available.

AYTA

TAF not available.

PKMJ 20/05/2024 UTC

TAF PKMJ 202321Z 2100/2124 07012KT P6SM VCSH FEW015 FEW050

NGTA 20/05/2024 UTC

TAF NGTA 202307Z 2100/2124
07005KT 9999 FEW030

PTRO 20/05/2024 UTC

TAF PTRO 202321Z 2100/2124 01010KT P6SM VCSH FEW009 SCT016 SCT120
TEMPO 2103/2107 4SM SHRA SCT009 BKN015 BKN120

YLHI 20/05/2024 UTC

TAF YLHI 202330Z 2100/2200
20016G26KT 9999 -SHRA FEW030 SCT035
FM210400 20014KT 9999 -SHRA SCT020 SCT030
RMK FM210000 MOD TURB BLW 5000FT TL210400
T 20 20 19 18 Q 1018 1017 1017 1019

YSNF 20/05/2024 UTC

TAF YSNF 202330Z 2100/2200
27018G32KT 9999 SCT045
FM210400 24015G25KT 9999 -SHRA SCT020 SCT035
FM211100 22014KT 9999 NSW SCT035
RMK
T 21 21 19 18 Q 1011 1010 1011 1013

Indonesia, Timor Leste, Papua New Guinea

The availability of aerodrome forecasts from overseas locations is dependent on the regular international exchange of data. Some locations may at times be absent. If this problem persists, please advise webav@bom.gov.au

 back to top

WAAA 20/05/2024 UTC

TAF WAAA 202300Z 2100/2206 10005KT 9999 SCT019
BECMG 2102/2103 29010KT

WAMM 20/05/2024 UTC

TAF WAMM 202300Z 2100/2206 18010KT 9999 SCT020
BECMG 2111/2112 VRB02KT

WAMP

TAF not available.

WAJJ 20/05/2024 UTC

TAF WAJJ 202300Z 2100/2124 24005KT 9999 SCT013

WAPP 20/05/2024 UTC

TAF WAPP 202300Z 2100/2124 20009KT 9999 SCT017
TEMPO 2100/2103 5000 RA FEW015CB

WABB 20/05/2024 UTC

TAF WABB 202300Z 2100/2206 31002KT 9999 SCT016
TEMPO 2100/2104 5000 RA

WPDL 20/05/2024 UTC

TAF WPDL 202312Z 2100/2112
16006KT CAVOK
FM210100 04010KT CAVOK
FM211100 16006KT CAVOK
RMK
T 30 31 31 30 Q 1011 1009 1008 1009

WATT 20/05/2024 UTC

TAF WATT 202300Z 2100/2124 13012KT 9999 SCT018
TEMPO 2101/2105 10015G25KT

WIII 20/05/2024 UTC

TAF WIII 202300Z 2100/2206 VRB02KT 5000 HZ SCT020 BECMG 2102/2104 05010KT 8000 NSW BECMG 2115/2117 17005KT 5000 HZ

WIHH 20/05/2024 UTC

TAF WIHH 202300Z 2100/2200 15006KT 5000 HZ FEW020
BECMG 2106/2108 06010KT 6000 SCT018

WIMM 20/05/2024 UTC

TAF AMD WIMM 202330Z 2100/2200 05010KT 9999 SCT018
TEMPO 2103/2106 5000 TSRA FEW017CB BKN018
BECMG 2114/2115 22003KT 5000 HZ

WARR 20/05/2024 UTC

TAF WARR 202300Z 2100/2200 08010KT 9999 FEW020

WADD 20/05/2024 UTC

TAF WADD 202300Z 2100/2200 12014KT 9999 SCT016

AYPY 20/05/2024 UTC

TAF AYPY 201505Z 2018/2118 14010KT 9999 BKN040
FM202200 13010KT 9999 SCT020 SCT140
FM210600 16012KT 9999 SCT018 BKN140

AYNZ

TAF not available.

AYMH

TAF not available.

AYMD

TAF not available.

AYHK

TAF not available.

AYTK

TAF not available.

AYVN

TAF not available.

AYWK

TAF not available.

AYGA

TAF not available.

AYDU

TAF not available.

AYMS

TAF not available.

AYRB

TAF not available.

AYTB

TAF not available.

AYKI

TAF not available.

AYKT

TAF not available.

AYBK

TAF not available.

AYKM

TAF not available.

AYKY

TAF not available.

AYMO

TAF not available.

AYKV

TAF not available.

Accessing this Service

By entering this site, you acknowledge that this information is produced solely for use by the aviation industry, and you are aware that any information for the purposes of flight planning should be obtained from Airservices Australia.